Latest Weather Observations for Orange Airport

IDN60801

Issued at 6:32 pm EDT Tuesday 17 October 2017 (issued every 30 minutes, with the page automatically refreshed every 10 minutes)

About weather observations | Map of weather stations | Latest weather observations for NSW | Other Formats
Station Details ID: 063303 Name: ORANGE AIRPORT AWS Lat: -33.38 Lon: 149.13 Height: 944.65 m
Data from the previous 72 hours. | See also: Recent months at Orange Airport
Date/Time
EDT
Temp
°C
App
Temp
°C
Dew
Point
°C
Rel
Hum
%
Delta-T
°C
Wind Press
QNH
hPa
Press
MSL
hPa
Rain since
9am
mm
Dir  Spd
km/h
Gust
km/h
Spd
kts
Gust
kts
17/06:30pm 20.3 15.9 4.8 36 7.9 NE 17 26 9 14 1025.5 1024.0 0.0
17/06:00pm 21.4 16.4 3.6 31 8.9 ENE 19 28 10 15 1025.2 1023.7 0.0
17/05:30pm 22.4 16.9 2.0 26 10.0 ENE 20 26 11 14 1025.0 1023.5 0.0
17/05:00pm 23.1 17.6 2.0 25 10.4 NE 20 28 11 15 1024.6 1023.1 0.0
17/04:30pm 23.6 17.7 -0.6 20 11.4 NE 20 32 11 17 1024.5 1023.0 0.0
17/04:00pm 23.9 18.6 -0.4 20 11.5 NE 17 30 9 16 1024.7 1023.2 0.0
17/03:30pm 23.7 18.5 2.5 25 10.6 NE 19 28 10 15 1024.7 1023.2 0.0
17/03:00pm 23.5 18.7 2.4 25 10.5 NE 17 30 9 16 1025.0 1023.5 0.0
17/02:30pm 23.6 18.2 2.4 25 10.6 ENE 20 32 11 17 1025.2 1023.7 0.0
17/02:00pm 22.9 17.8 2.9 27 10.0 ENE 19 30 10 16 1025.5 1024.0 0.0
17/01:30pm 22.8 17.8 4.8 31 9.4 ENE 20 30 11 16 1025.7 1024.2 0.0
17/01:00pm 21.8 17.2 5.7 35 8.4 ENE 19 26 10 14 1026.2 1024.7 0.0
17/12:30pm 20.6 16.0 5.8 38 7.7 NE 19 26 10 14 1026.7 1025.2 0.0
17/12:00pm 19.2 15.0 8.2 49 5.9 ENE 20 32 11 17 1026.9 1025.5 0.0
17/11:30am 16.8 12.0 7.4 54 4.9 ENE 22 32 12 17 1027.4 1025.9 0.0
17/11:00am 16.1 10.9 7.3 56 4.6 ENE 24 35 13 19 1027.5 1026.0 0.0
17/10:30am 15.5 10.2 8.5 63 3.7 ENE 26 37 14 20 1027.8 1026.4 0.0
17/10:00am 14.7 9.6 7.7 63 3.6 ENE 24 32 13 17 1027.7 1026.2 0.0
17/09:30am 12.6 7.5 7.5 71 2.6 ENE 24 35 13 19 1027.8 1026.4 0.0
17/09:00am 11.8 7.1 7.9 77 2.0 ENE 22 30 12 16 1027.8 1026.4 0.0
17/08:30am 11.1 4.8 7.6 79 1.8 ENE 30 41 16 22 1027.5 1026.0 0.0
17/08:00am 10.1 4.9 7.2 82 1.4 ENE 24 30 13 16 1027.4 1025.9 0.0
17/07:30am 8.9 5.2 6.5 85 1.2 ENE 15 20 8 11 1027.3 1025.8 0.0
17/07:00am 7.5 4.5 6.0 90 0.7 ENE 11 17 6 9 1027.0 1025.6 0.0
17/06:30am 7.0 4.3 5.6 91 0.7 ENE 9 17 5 9 1026.7 1025.2 0.0
17/06:00am 6.1 4.5 4.6 90 0.7 NNE 2 7 1 4 1026.6 1025.1 0.0
17/05:30am 6.3 4.8 4.9 91 0.6 NE 2 7 1 4 1026.4 1024.9 0.0
17/05:00am 6.7 4.2 4.9 88 0.8 NNE 7 13 4 7 1026.4 1024.9 0.0
17/04:30am 7.1 4.4 5.6 90 0.7 NE 9 13 5 7 1026.6 1025.1 0.0
17/04:00am 7.1 4.3 5.3 88 0.8 ENE 9 13 5 7 1026.6 1025.1 0.0
17/03:30am 7.8 4.0 5.9 88 0.9 ENE 15 22 8 12 1026.7 1025.2 0.0
17/03:00am 7.8 4.0 5.8 87 0.9 ENE 15 19 8 10 1026.9 1025.5 0.0
17/02:30am 8.5 4.0 6.3 86 1.1 ENE 19 24 10 13 1026.8 1025.4 0.0
17/02:00am 7.8 5.1 5.4 85 1.1 NE 9 13 5 7 1027.5 1026.0 0.0
17/01:30am 8.3 4.6 6.1 86 1.1 ENE 15 19 8 10 1027.5 1026.0 0.0
17/01:00am 8.8 4.7 6.4 85 1.2 E 17 26 9 14 1027.4 1025.9 0.0
17/12:30am 9.2 4.8 6.5 83 1.3 ENE 19 28 10 15 1027.5 1026.0 0.0
17/12:00am 9.8 5.3 6.9 82 1.4 E 20 28 11 15 1027.5 1026.0 0.0
 
Date/Time
EDT
Temp
°C
App
Temp
°C
Dew
Point
°C
Rel
Hum
%
Delta-T
°C
Wind Press
QNH
hPa
Press
MSL
hPa
Rain since
9am
mm
Dir  Spd
km/h
Gust
km/h
Spd
kts
Gust
kts
16/11:30pm 10.1 5.8 7.2 82 1.5 E 19 26 10 14 1027.5 1026.0 0.0
16/11:00pm 10.4 6.2 7.3 81 1.6 E 19 22 10 12 1027.5 1026.0 0.0
16/10:30pm 10.8 7.5 6.6 75 2.1 ENE 13 19 7 10 1027.5 1026.0 0.0
16/10:00pm 12.0 8.1 6.9 71 2.6 E 17 22 9 12 1027.4 1025.9 0.0
16/09:30pm 12.6 8.2 6.4 66 3.1 E 19 26 10 14 1027.4 1025.9 0.0
16/09:00pm 13.3 8.9 6.4 63 3.5 E 19 26 10 14 1027.0 1025.6 0.0
16/08:30pm 14.2 10.1 6.3 59 4.0 E 17 24 9 13 1026.8 1025.4 0.0
16/08:00pm 14.7 11.0 6.3 57 4.2 E 15 19 8 10 1026.4 1024.9 0.0
16/07:30pm 15.2 10.7 7.0 58 4.2 ESE 20 28 11 15 1025.9 1024.5 0.0
16/07:00pm 16.7 11.4 6.8 52 5.1 E 24 30 13 16 1025.6 1024.1 0.0
16/06:30pm 18.3 12.9 6.2 45 6.3 E 24 33 13 18 1025.4 1023.9 0.0
16/06:00pm 19.3 13.8 6.1 42 6.8 ESE 24 35 13 19 1025.2 1023.7 0.0
16/05:30pm 20.1 14.2 5.7 39 7.5 E 26 32 14 17 1025.1 1023.6 0.0
16/05:00pm 20.8 15.1 4.8 35 8.2 E 24 32 13 17 1024.7 1023.2 0.0
16/04:30pm 21.5 16.7 4.6 33 8.7 E 19 30 10 16 1024.6 1023.1 0.0
16/04:00pm 21.8 17.3 4.4 32 8.9 ENE 17 24 9 13 1024.8 1023.3 0.0
16/03:30pm 21.9 17.1 4.5 32 8.9 E 19 32 10 17 1025.2 1023.7 0.0
16/03:00pm 21.6 16.7 4.2 32 8.8 E 19 26 10 14 1025.5 1024.0 0.0
16/02:30pm 21.4 16.6 4.5 33 8.7 E 19 32 10 17 1025.6 1024.1 0.0
16/02:00pm 21.7 16.9 5.6 35 8.4 E 20 33 11 18 1025.9 1024.5 0.0
16/01:30pm 20.7 15.9 4.7 35 8.2 ENE 19 28 10 15 1026.6 1025.1 0.0
16/01:00pm 19.8 15.0 5.5 39 7.3 NE 20 30 11 16 1026.8 1025.4 0.0
16/12:30pm 19.1 13.8 4.8 39 7.3 NE 22 32 12 17 1027.3 1025.8 0.0
16/12:00pm 19.1 15.4 6.2 43 6.7 ENE 15 28 8 15 1027.7 1026.2 0.0
16/11:30am 18.4 14.1 7.2 48 5.9 ENE 19 32 10 17 1027.8 1026.4 0.0
16/11:00am 17.3 12.2 6.2 48 5.7 NE 22 33 12 18 1028.2 1026.8 0.0
16/10:30am 16.1 11.3 7.3 56 4.6 ENE 22 30 12 16 1028.2 1026.8 0.0
16/10:00am 15.3 11.1 8.3 63 3.7 ENE 20 30 11 16 1028.4 1026.9 0.0
16/09:30am 13.9 9.8 7.7 66 3.2 ENE 19 26 10 14 1028.2 1026.8 0.0
16/09:00am 12.7 8.4 7.2 69 2.8 NE 19 28 10 15 1027.9 1026.5 0.0
16/08:30am 11.9 5.6 7.4 74 2.3 E 30 41 16 22 1027.4 1025.9 0.0
16/08:00am 11.2 6.5 7.7 79 1.8 E 22 35 12 19 1027.1 1025.7 0.0
16/07:30am 10.1 6.6 7.3 83 1.4 ENE 15 20 8 11 1026.7 1025.2 0.0
16/07:00am 8.9 5.7 6.9 87 1.0 E 13 19 7 10 1026.5 1025.0 0.0
16/06:30am 8.0 5.5 6.6 91 0.7 ENE 9 15 5 8 1026.2 1024.7 0.0
16/06:00am 7.0 4.6 4.5 84 1.1 E 6 11 3 6 1025.9 1024.5 0.0
16/05:30am 8.9 5.0 6.9 87 1.0 ENE 17 28 9 15 1025.5 1024.0 0.0
16/05:00am 9.1 3.0 6.7 85 1.2 ENE 28 37 15 20 1025.1 1023.6 0.0
16/04:30am 9.0 3.7 6.8 86 1.1 ENE 24 39 13 21 1025.1 1023.6 0.0
16/04:00am 9.4 4.1 6.8 84 1.3 ENE 24 37 13 20 1025.2 1023.7 0.0
16/03:30am 9.7 3.3 7.0 83 1.3 ENE 30 41 16 22 1025.4 1023.9 0.0
16/03:00am 9.7 4.1 7.1 84 1.3 ENE 26 37 14 20 1025.4 1023.9 0.0
16/02:30am 9.8 3.9 7.4 85 1.2 ENE 28 35 15 19 1025.6 1024.1 0.0
16/02:00am 9.6 5.3 7.9 89 0.9 ENE 20 28 11 15 1025.8 1024.3 0.0
16/01:30am 10.2 6.0 8.1 87 1.1 NE 20 28 11 15 1026.2 1024.7 0.0
16/01:00am 10.6 6.0 8.2 85 1.2 ENE 22 30 12 16 1026.3 1024.8 0.0
16/12:30am 10.8 6.7 8.6 86 1.1 ENE 20 30 11 16 1026.6 1025.1 0.0
16/12:00am 10.4 6.8 8.3 87 1.1 ENE 17 26 9 14 1026.4 1024.9 0.0
 
Date/Time
EDT
Temp
°C
App
Temp
°C
Dew
Point
°C
Rel
Hum
%
Delta-T
°C
Wind Press
QNH
hPa
Press
MSL
hPa
Rain since
9am
mm
Dir  Spd
km/h
Gust
km/h
Spd
kts
Gust
kts
15/11:30pm 10.7 7.1 8.3 85 1.2 ENE 17 24 9 13 1026.5 1025.0 0.0
15/11:00pm 11.3 7.2 8.5 83 1.4 ENE 20 32 11 17 1026.4 1024.9 0.0
15/10:30pm 11.5 7.7 9.1 85 1.3 ENE 19 26 10 14 1026.3 1024.8 0.0
15/10:00pm 11.7 8.2 8.9 83 1.5 E 17 24 9 13 1026.3 1024.8 0.0
15/09:30pm 11.6 8.8 8.5 81 1.6 ENE 13 17 7 9 1026.2 1024.7 0.0
15/09:00pm 12.2 9.1 8.7 79 1.8 E 15 17 8 9 1025.8 1024.3 0.0
15/08:30pm 13.1 9.5 8.4 73 2.5 ENE 17 24 9 13 1025.6 1024.1 0.0
15/08:00pm 14.2 10.3 8.6 69 3.0 ENE 19 28 10 15 1025.1 1023.6 0.0
15/07:30pm 14.6 11.1 7.4 62 3.7 ENE 15 20 8 11 1024.7 1023.2 0.0
15/07:00pm 15.8 12.3 7.3 57 4.4 ENE 15 20 8 11 1024.4 1022.9 0.0
15/06:30pm 17.4 11.9 7.5 52 5.2 ENE 26 39 14 21 1024.2 1022.7 0.0
15/06:00pm 17.9 13.0 7.0 49 5.7 E 22 32 12 17 1023.8 1022.2 0.0
15/05:30pm 17.7 13.3 7.2 50 5.5 ENE 20 30 11 16 1023.6 1022.1 0.0
15/05:00pm 19.0 15.1 7.1 46 6.3 ENE 17 26 9 14 1023.4 1021.9 0.0
15/04:30pm 18.9 14.8 7.7 48 6.0 ENE 19 32 10 17 1023.4 1021.9 0.0
15/04:00pm 19.9 16.8 8.9 49 6.0 ENE 15 24 8 13 1023.4 1021.9 0.0
15/03:30pm 19.7 16.3 9.0 50 5.9 NE 17 26 9 14 1023.5 1022.0 0.0
15/03:00pm 19.3 15.8 8.6 50 5.8 NE 17 28 9 15 1023.8 1022.2 0.0
15/02:30pm 20.9 17.7 11.3 54 5.5 ENE 19 28 10 15 1024.0 1022.4 0.0
15/02:00pm 19.5 15.3 8.2 48 6.1 NE 20 28 11 15 1024.3 1022.8 0.0
15/01:30pm 19.0 14.6 8.9 52 5.5 ENE 22 33 12 18 1024.3 1022.8 0.0
15/01:00pm 19.1 15.1 9.0 52 5.5 ENE 20 32 11 17 1024.5 1023.0 0.0
15/12:30pm 18.9 15.2 10.2 57 4.9 NE 20 32 11 17 1024.7 1023.2 0.0
15/12:00pm 18.0 13.8 9.6 58 4.6 ENE 22 32 12 17 1025.1 1023.6 0.0
15/11:30am 17.0 12.1 9.9 63 3.9 NE 26 35 14 19 1025.2 1023.7 0.0
15/11:00am 17.0 13.5 10.8 67 3.5 ENE 20 32 11 17 1025.4 1023.9 0.0
15/10:31am 14.9 11.3 9.9 72 2.7 ENE 19 28 10 15 1025.6 1024.1 0.0
15/10:30am 14.9 11.3 9.9 72 2.7 ENE 19 28 10 15 1025.6 1024.1 0.0
15/10:00am 14.1 10.3 9.9 76 2.3 NE 20 30 11 16 1025.6 1024.1 0.0
15/09:40am 14.7 12.1 10.7 77 2.2 ENE 15 22 8 12 1025.6 1024.1 0.0
15/09:30am 13.9 11.2 10.3 79 2.0 NE 15 20 8 11 1025.5 1024.0 0.0
15/09:20am 13.4 10.0 10.4 82 1.6 ENE 19 26 10 14 1025.4 1023.9 0.0
15/09:00am 12.1 7.1 9.7 85 1.3 ENE 26 35 14 19 1025.2 1023.7 0.0
15/08:30am 11.6 7.0 9.7 88 1.0 ENE 24 32 13 17 1025.0 1023.5 0.0
15/08:00am 10.8 7.4 9.2 90 0.8 ENE 17 24 9 13 1024.7 1023.2 0.0
15/07:48am 10.5 7.5 9.1 91 0.7 ENE 15 20 8 11 1024.6 1023.1 0.0
15/07:47am 10.5 7.5 9.1 91 0.7 ENE 15 19 8 10 1024.6 1023.1 0.0
15/07:30am 9.7 6.9 8.6 93 0.6 ENE 13 17 7 9 1024.3 1022.8 0.0
15/07:20am 9.2 6.3 8.3 94 0.5 ENE 13 19 7 10 1024.3 1022.8 0.0
15/07:00am 9.1 5.8 8.2 94 0.5 E 15 20 8 11 1024.0 1022.4 0.0
15/06:30am 8.3 4.9 7.5 95 0.4 ENE 15 20 8 11 1023.8 1022.2 0.0
15/06:00am 8.5 4.7 7.6 94 0.4 E 17 24 9 13 1023.5 1022.0 0.0
15/05:30am 8.2 4.4 7.6 96 0.3 E 17 20 9 11 1023.4 1021.9 0.0
15/05:00am 7.6 4.4 6.9 95 0.3 E 13 17 7 9 1023.4 1021.9 0.0
15/04:30am 7.8 4.3 7.2 96 0.3 ENE 15 19 8 10 1023.3 1021.8 0.0
15/04:00am 7.7 4.9 7.0 95 0.3 ENE 11 15 6 8 1023.3 1021.8 0.0
15/03:30am 7.8 4.3 7.2 96 0.3 ENE 15 20 8 11 1023.3 1021.8 0.0
15/03:00am 7.9 4.8 7.3 96 0.3 ENE 13 19 7 10 1023.5 1022.0 0.0
15/02:30am 7.7 4.5 7.0 95 0.3 ENE 13 15 7 8 1023.6 1022.1 0.0
15/02:00am 7.8 5.0 7.1 95 0.3 ENE 11 15 6 8 1024.0 1022.4 0.0
15/01:30am 8.3 5.6 7.4 94 0.4 ENE 11 17 6 9 1024.2 1022.7 0.0
15/01:00am 8.3 4.5 7.4 94 0.4 E 17 20 9 11 1024.4 1022.9 0.0
15/12:30am 8.5 4.3 7.3 92 0.6 E 19 22 10 12 1024.5 1023.0 0.0
15/12:00am 9.1 4.4 7.7 91 0.7 E 22 32 12 17 1024.5 1023.0 0.0
 
Date/Time
EDT
Temp
°C
App
Temp
°C
Dew
Point
°C
Rel
Hum
%
Delta-T
°C
Wind Press
QNH
hPa
Press
MSL
hPa
Rain since
9am
mm
Dir  Spd
km/h
Gust
km/h
Spd
kts
Gust
kts
14/11:30pm 9.1 5.0 7.7 91 0.7 E 19 26 10 14 1024.7 1023.2 0.0
14/11:00pm 9.3 5.2 7.9 91 0.7 E 19 26 10 14 1024.6 1023.1 0.0
14/10:30pm 9.5 5.3 8.1 91 0.7 E 20 26 11 14 1024.5 1023.0 0.0
14/10:00pm 9.3 6.0 7.9 91 0.7 E 15 20 8 11 1024.7 1023.2 0.0
14/09:30pm 8.7 5.6 7.3 91 0.7 ESE 13 15 7 8 1024.5 1023.0 0.0
14/09:00pm 9.6 6.6 7.5 87 1.1 E 13 19 7 10 1024.2 1022.7 0.0
14/08:30pm 11.1 7.4 8.1 82 1.5 E 17 22 9 12 1023.9 1022.3 0.0
14/08:00pm 11.8 7.9 8.5 80 1.7 E 19 30 10 16 1023.5 1022.0 0.0
14/07:30pm 12.6 7.7 8.5 76 2.1 E 24 37 13 20 1023.2 1021.7 0.0
14/07:00pm 13.6 9.5 8.7 72 2.6 E 20 30 11 16 1022.9 1021.3 0.0

Other Formats:

Comma delimited format used in spreadsheet applications
http://www.bom.gov.au/fwo/IDN60801/IDN60801.95726.axf

JavaScript Object Notation format (JSON) in row-major order
http://www.bom.gov.au/fwo/IDN60801/IDN60801.95726.json